Time;durP1;ratioP1;P1;durP2;ratioP2;P2;SDS_P1;SDS_P2;PMS_P1;PMS_P2;Temp;Humidity;BMP_temperature;BMP_pressure;BME280_temperature;BME280_humidity;BME280_pressure;Samples;Min_cycle;Max_cycle;Signal;HPM_P1;HPM_P2
2024/04/07 00:00:58;;;;;;;5.07;4.63;;;16.50;99.90;;;;;;4897116;29;20457;-71
2024/04/07 00:03:25;;;;;;;7.40;6.80;;;16.40;99.90;;;;;;4896990;29;20465;-72
2024/04/07 00:05:55;;;;;;;7.70;7.00;;;16.40;99.90;;;;;;4913500;29;20464;-71
2024/04/07 00:08:22;;;;;;;8.20;6.47;;;16.40;99.90;;;;;;4901227;29;20783;-71
2024/04/07 00:10:51;;;;;;;4.83;4.37;;;16.30;99.90;;;;;;4916972;29;20823;-71
2024/04/07 00:13:17;;;;;;;4.57;4.03;;;16.30;99.90;;;;;;4900819;29;20472;-71
2024/04/07 00:15:44;;;;;;;4.37;3.97;;;16.30;99.90;;;;;;4901105;29;20520;-71
2024/04/07 00:18:11;;;;;;;5.47;4.80;;;16.20;99.90;;;;;;4900858;29;20424;-71
2024/04/07 00:20:39;;;;;;;5.20;3.57;;;16.20;99.90;;;;;;4900727;29;20440;-71
2024/04/07 00:23:05;;;;;;;5.07;3.30;;;16.20;99.90;;;;;;4900753;29;20531;-71
2024/04/07 00:25:32;;;;;;;3.80;3.50;;;16.20;99.90;;;;;;4900717;29;20428;-72
2024/04/07 00:28:00;;;;;;;6.97;6.37;;;16.10;99.90;;;;;;4900990;29;20424;-72
2024/04/07 00:30:27;;;;;;;6.00;4.90;;;16.10;99.90;;;;;;4916233;29;20801;-71
2024/04/07 00:32:53;;;;;;;5.40;4.80;;;16.00;99.90;;;;;;4884851;29;20476;-72
2024/04/07 00:35:20;;;;;;;4.73;4.30;;;16.00;99.90;;;;;;4900445;29;20448;-71
2024/04/07 00:37:47;;;;;;;6.80;5.33;;;16.00;99.90;;;;;;4900460;29;20453;-71
2024/04/07 00:40:14;;;;;;;4.17;3.80;;;15.90;99.90;;;;;;4916247;29;20423;-71
2024/04/07 00:42:45;;;;;;;4.80;4.30;;;15.90;99.90;;;;;;4900258;29;20469;-71
2024/04/07 00:45:14;;;;;;;4.57;4.10;;;15.90;99.90;;;;;;4900510;29;20835;-71
2024/04/07 00:47:40;;;;;;;4.60;3.77;;;15.90;99.90;;;;;;4900255;29;20449;-71
2024/04/07 00:50:08;;;;;;;4.50;4.10;;;15.80;99.90;;;;;;4915951;29;20543;-71
2024/04/07 00:52:34;;;;;;;7.00;5.70;;;15.80;99.90;;;;;;4900535;29;20472;-71
2024/04/07 00:55:03;;;;;;;10.93;9.93;;;15.80;99.90;;;;;;4900305;29;20457;-72
2024/04/07 00:57:31;;;;;;;11.13;10.23;;;15.70;99.90;;;;;;4900580;29;20441;-72
2024/04/07 00:59:59;;;;;;;9.60;8.80;;;15.70;99.90;;;;;;4900600;29;20457;-72
2024/04/07 01:02:27;;;;;;;9.47;8.47;;;15.70;99.90;;;;;;4899940;29;20460;-71
2024/04/07 01:04:55;;;;;;;8.20;7.40;;;15.60;99.90;;;;;;4900569;29;20439;-71
2024/04/07 01:07:22;;;;;;;6.33;5.70;;;15.60;99.90;;;;;;4900141;29;20545;-71
2024/04/07 01:09:50;;;;;;;7.67;6.97;;;15.60;99.90;;;;;;4899980;29;20444;-71
2024/04/07 01:12:16;;;;;;;7.57;6.73;;;15.60;99.90;;;;;;4899714;29;20473;-71
2024/04/07 01:14:43;;;;;;;7.43;6.20;;;15.50;99.90;;;;;;4899777;29;20423;-71
2024/04/07 01:17:10;;;;;;;6.63;6.07;;;15.50;99.90;;;;;;4899059;29;20548;-71
2024/04/07 01:19:38;;;;;;;8.00;7.30;;;15.50;99.90;;;;;;4899724;29;20856;-71
2024/04/07 01:22:05;;;;;;;11.07;9.93;;;15.50;99.90;;;;;;4904675;29;20970;-70
2024/04/07 01:24:34;;;;;;;11.50;10.50;;;15.50;99.90;;;;;;4903098;29;20821;-71
2024/04/07 01:27:00;;;;;;;18.53;16.83;;;15.50;99.90;;;;;;4900729;29;20449;-71
2024/04/07 01:29:28;;;;;;;16.50;14.90;;;15.40;99.90;;;;;;4901538;29;20456;-71
2024/04/07 01:31:54;;;;;;;12.63;11.43;;;15.40;99.90;;;;;;4900316;29;20476;-70
2024/04/07 01:34:21;;;;;;;13.40;12.30;;;15.40;99.90;;;;;;4900141;29;20460;-71
2024/04/07 01:36:49;;;;;;;11.37;10.27;;;15.40;99.90;;;;;;4899750;29;21104;-70
2024/04/07 01:39:16;;;;;;;9.90;9.10;;;15.40;99.90;;;;;;4900064;29;20817;-71
2024/04/07 01:41:44;;;;;;;7.90;7.20;;;15.40;99.90;;;;;;4899905;29;20449;-70
2024/04/07 01:44:12;;;;;;;16.17;8.93;;;15.40;99.90;;;;;;4915129;29;20471;-71
2024/04/07 01:46:38;;;;;;;7.30;6.70;;;15.30;99.90;;;;;;4899712;29;20501;-71
2024/04/07 01:49:05;;;;;;;9.20;8.40;;;15.30;99.90;;;;;;4915253;29;20439;-71
2024/04/07 01:51:32;;;;;;;8.93;8.13;;;15.30;99.90;;;;;;4899888;29;20445;-71
2024/04/07 01:53:59;;;;;;;6.07;5.57;;;15.30;99.90;;;;;;4899160;29;20432;-71
2024/04/07 01:56:25;;;;;;;6.00;4.43;;;15.30;99.90;;;;;;4883472;29;21021;-71
2024/04/07 01:58:54;;;;;;;7.13;5.77;;;15.20;99.90;;;;;;4899602;29;20452;-71
2024/04/07 02:01:20;;;;;;;7.60;5.07;;;15.20;99.90;;;;;;4899000;29;20464;-71
2024/04/07 02:03:48;;;;;;;4.27;3.83;;;15.20;99.90;;;;;;4898915;29;20479;-71
2024/04/07 02:06:14;;;;;;;4.47;4.07;;;15.30;99.90;;;;;;4898920;29;20449;-71
2024/04/07 02:08:41;;;;;;;6.80;4.30;;;15.20;99.90;;;;;;4899452;29;20453;-71
2024/04/07 02:11:07;;;;;;;5.23;2.90;;;15.20;99.90;;;;;;4898904;29;20912;-71
2024/04/07 02:13:35;;;;;;;3.83;3.43;;;15.30;99.90;;;;;;4883036;29;21006;-71
2024/04/07 02:16:03;;;;;;;5.40;3.77;;;15.20;99.90;;;;;;4898967;29;20473;-71
2024/04/07 02:18:30;;;;;;;3.80;3.43;;;15.30;99.90;;;;;;4898693;29;20435;-71
2024/04/07 02:20:56;;;;;;;4.53;3.40;;;15.20;99.90;;;;;;4883381;29;20454;-71
2024/04/07 02:23:24;;;;;;;3.97;3.23;;;15.20;99.90;;;;;;4898755;29;20546;-71
2024/04/07 02:25:50;;;;;;;4.23;3.23;;;15.20;99.90;;;;;;4898946;29;20549;-71
2024/04/07 02:28:18;;;;;;;3.83;3.37;;;15.20;99.90;;;;;;4898650;29;20453;-71
2024/04/07 02:30:44;;;;;;;3.37;2.70;;;15.20;99.90;;;;;;4914049;29;20540;-71
2024/04/07 02:33:13;;;;;;;4.30;2.80;;;15.20;99.90;;;;;;4898643;29;20619;-71
2024/04/07 02:35:40;;;;;;;3.53;2.90;;;15.20;99.90;;;;;;4898307;29;21058;-71
2024/04/07 02:38:09;;;;;;;5.37;3.00;;;15.20;99.90;;;;;;4914369;29;20505;-71
2024/04/07 02:40:35;;;;;;;5.93;2.50;;;15.20;99.90;;;;;;4898867;29;20465;-71
2024/04/07 02:43:03;;;;;;;4.13;2.70;;;15.20;99.90;;;;;;4882663;29;20440;-71
2024/04/07 02:48:16;;;;;;;3.17;2.70;;;15.30;99.90;;;;;;4898153;29;20469;-71
2024/04/07 02:50:43;;;;;;;3.53;3.00;;;15.30;99.90;;;;;;4898046;29;20529;-71
2024/04/07 02:53:11;;;;;;;5.40;2.90;;;15.30;99.90;;;;;;4898044;29;20469;-71
2024/04/07 02:55:37;;;;;;;4.43;2.97;;;15.30;99.90;;;;;;4898522;29;20476;-71
2024/04/07 02:58:08;;;;;;;2.73;2.50;;;15.30;99.90;;;;;;4897896;29;20449;-71
2024/04/07 03:00:34;;;;;;;4.00;2.93;;;15.30;99.90;;;;;;4898222;29;20492;-71
2024/04/07 03:03:02;;;;;;;3.83;2.90;;;15.30;99.90;;;;;;4898169;29;20465;-71
2024/04/07 03:05:29;;;;;;;3.50;3.10;;;15.30;99.90;;;;;;4901207;29;21009;-71
2024/04/07 03:07:57;;;;;;;4.60;2.90;;;15.30;99.90;;;;;;4900389;29;20453;-70
2024/04/07 03:10:23;;;;;;;3.83;2.80;;;15.30;99.90;;;;;;4898991;29;20448;-71
2024/04/07 03:12:50;;;;;;;3.00;2.50;;;15.30;99.90;;;;;;4898389;29;20958;-71
2024/04/07 03:15:16;;;;;;;5.23;4.37;;;15.30;99.90;;;;;;4898181;29;20439;-71
2024/04/07 03:17:44;;;;;;;6.33;4.33;;;15.30;99.90;;;;;;4898053;29;20453;-71
2024/04/07 03:20:10;;;;;;;4.37;3.87;;;15.30;99.90;;;;;;4898378;29;20480;-71
2024/04/07 03:22:38;;;;;;;8.03;4.80;;;15.30;99.90;;;;;;4898155;29;20469;-71
2024/04/07 03:25:05;;;;;;;3.90;3.53;;;15.30;99.90;;;;;;4897679;29;20511;-71
2024/04/07 03:27:32;;;;;;;4.67;3.33;;;15.30;99.90;;;;;;4897888;29;21041;-71
2024/04/07 03:29:59;;;;;;;3.40;2.90;;;15.30;99.90;;;;;;4897678;29;20424;-71
2024/04/07 03:32:26;;;;;;;3.40;3.07;;;15.30;99.90;;;;;;4897438;29;20473;-71
2024/04/07 03:34:52;;;;;;;8.20;2.87;;;15.30;99.90;;;;;;4897524;29;20548;-71
2024/04/07 03:37:20;;;;;;;5.80;3.10;;;15.30;99.90;;;;;;4897384;29;20969;-71
2024/04/07 03:39:48;;;;;;;4.10;2.63;;;15.30;99.90;;;;;;4897423;29;20456;-71
2024/04/07 03:42:17;;;;;;;2.93;2.67;;;15.40;99.90;;;;;;4912776;29;20485;-71
2024/04/07 03:44:44;;;;;;;3.67;3.17;;;15.40;99.90;;;;;;4897297;29;20468;-71
2024/04/07 03:47:12;;;;;;;4.73;2.43;;;15.50;99.90;;;;;;4897248;29;20448;-71
2024/04/07 03:49:39;;;;;;;4.30;3.47;;;15.50;99.90;;;;;;4881600;29;20471;-71
2024/04/07 03:52:06;;;;;;;4.00;3.00;;;15.60;99.90;;;;;;4897109;29;20448;-71
2024/04/07 03:54:33;;;;;;;5.20;2.67;;;15.60;99.90;;;;;;4897167;29;20449;-71
2024/04/07 03:57:01;;;;;;;3.60;3.03;;;15.70;99.90;;;;;;4913383;29;20511;-71
2024/04/07 03:59:29;;;;;;;5.23;3.40;;;15.80;99.90;;;;;;4897149;29;20449;-71
2024/04/07 04:01:55;;;;;;;4.93;3.43;;;15.90;99.90;;;;;;4897028;29;20541;-71
2024/04/07 04:04:22;;;;;;;4.00;3.20;;;15.90;99.90;;;;;;4897813;29;20457;-71
2024/04/07 04:06:49;;;;;;;4.60;3.60;;;16.00;99.90;;;;;;4897079;29;20477;-71
2024/04/07 04:09:17;;;;;;;5.47;3.10;;;16.00;99.90;;;;;;4897045;29;20419;-71
2024/04/07 04:11:50;;;;;;;3.63;3.23;;;16.10;99.90;;;;;;4912860;29;20471;-71
2024/04/07 04:14:18;;;;;;;7.40;3.60;;;16.20;99.90;;;;;;4912647;29;20836;-71
2024/04/07 04:16:45;;;;;;;5.20;3.33;;;16.20;99.90;;;;;;4896885;29;20444;-71
2024/04/07 04:19:13;;;;;;;4.73;3.80;;;16.20;99.90;;;;;;4912668;29;20978;-71
2024/04/07 04:21:41;;;;;;;6.43;3.77;;;16.30;99.90;;;;;;4896816;29;20424;-71
2024/04/07 04:24:08;;;;;;;5.27;3.70;;;16.30;99.90;;;;;;4897055;29;20441;-71
2024/04/07 04:26:34;;;;;;;11.73;4.37;;;16.30;99.90;;;;;;4881314;29;20424;-71
2024/04/07 04:29:02;;;;;;;7.37;3.83;;;16.40;99.90;;;;;;4897138;29;20420;-71
2024/04/07 04:31:32;;;;;;;5.93;4.30;;;16.40;99.90;;;;;;4897116;29;20453;-71
2024/04/07 04:33:59;;;;;;;4.93;3.97;;;16.40;99.90;;;;;;4896742;29;20450;-71
2024/04/07 04:36:25;;;;;;;5.33;4.30;;;16.40;99.90;;;;;;4896749;29;20525;-71
2024/04/07 04:38:53;;;;;;;4.83;4.10;;;16.40;99.90;;;;;;4896784;29;20430;-71
2024/04/07 04:41:19;;;;;;;4.53;4.03;;;16.40;99.90;;;;;;4897121;29;20532;-71
2024/04/07 04:43:46;;;;;;;6.23;4.40;;;16.30;99.90;;;;;;4896705;29;20965;-71
2024/04/07 04:46:13;;;;;;;5.83;4.30;;;16.30;99.90;;;;;;4897026;29;20416;-71
2024/04/07 04:48:44;;;;;;;5.03;3.90;;;16.30;99.90;;;;;;4897024;29;20449;-71
2024/04/07 04:51:10;;;;;;;6.30;4.40;;;16.30;99.90;;;;;;4896731;29;20456;-71
2024/04/07 04:53:37;;;;;;;4.20;3.80;;;16.30;99.90;;;;;;4899852;29;20464;-71
2024/04/07 04:56:04;;;;;;;6.40;3.70;;;16.20;99.90;;;;;;4900301;29;20472;-71
2024/04/07 04:58:32;;;;;;;8.83;3.87;;;16.20;99.90;;;;;;4900156;29;20452;-71
2024/04/07 05:00:58;;;;;;;6.60;3.70;;;16.20;99.90;;;;;;4900131;29;20516;-71
2024/04/07 05:03:27;;;;;;;6.63;4.30;;;16.20;99.90;;;;;;4900008;29;20472;-71
2024/04/07 05:05:54;;;;;;;3.73;3.07;;;16.20;99.90;;;;;;4900275;29;20449;-71
2024/04/07 05:08:21;;;;;;;7.33;3.20;;;16.20;99.90;;;;;;4900068;29;20458;-71
2024/04/07 05:10:48;;;;;;;6.10;3.10;;;16.20;99.90;;;;;;4900025;29;20460;-71
2024/04/07 05:13:16;;;;;;;6.67;3.00;;;16.20;99.90;;;;;;4899967;29;20451;-71
2024/04/07 05:15:42;;;;;;;6.00;3.40;;;16.20;99.90;;;;;;4884427;29;20963;-71
2024/04/07 05:18:10;;;;;;;4.43;2.80;;;16.20;99.90;;;;;;4915838;29;20481;-71
2024/04/07 05:20:37;;;;;;;3.80;2.70;;;16.20;99.90;;;;;;4899913;29;20445;-71
2024/04/07 05:23:06;;;;;;;3.90;3.00;;;16.20;99.90;;;;;;4915375;29;20472;-71
2024/04/07 05:25:32;;;;;;;5.73;3.20;;;16.10;99.90;;;;;;4915449;29;20441;-71
2024/04/07 05:28:00;;;;;;;5.90;3.30;;;16.10;99.90;;;;;;4899786;29;20500;-71
2024/04/07 05:30:26;;;;;;;3.80;2.50;;;16.10;99.90;;;;;;4899595;29;20448;-71
2024/04/07 05:32:54;;;;;;;10.20;2.93;;;16.20;99.90;;;;;;4899506;29;20528;-71
2024/04/07 05:35:21;;;;;;;4.13;2.70;;;16.20;99.90;;;;;;4899561;29;21000;-71
2024/04/07 05:37:49;;;;;;;3.60;2.27;;;16.20;99.90;;;;;;4899407;29;20483;-71
2024/04/07 05:40:16;;;;;;;6.67;2.33;;;16.20;99.90;;;;;;4899367;29;20442;-71
2024/04/07 05:42:44;;;;;;;4.63;2.50;;;16.20;99.90;;;;;;4899755;29;21056;-71
2024/04/07 05:45:10;;;;;;;3.80;1.93;;;16.20;99.90;;;;;;4899460;29;21053;-71
2024/04/07 05:47:37;;;;;;;3.77;2.37;;;16.20;99.90;;;;;;4899555;29;20424;-71
2024/04/07 05:50:05;;;;;;;4.80;2.40;;;16.20;99.90;;;;;;4883646;29;20510;-71
2024/04/07 05:52:32;;;;;;;5.10;2.30;;;16.20;99.90;;;;;;4899445;29;20472;-71
2024/04/07 05:54:59;;;;;;;6.33;2.37;;;16.10;99.90;;;;;;4899848;29;20443;-71
2024/04/07 05:57:27;;;;;;;4.10;2.40;;;16.10;99.90;;;;;;4884130;29;20444;-71
2024/04/07 05:59:54;;;;;;;5.57;2.57;;;16.10;99.90;;;;;;4899416;29;20591;-71
2024/04/07 06:02:21;;;;;;;5.37;2.33;;;16.10;99.90;;;;;;4915318;29;20491;-71
2024/04/07 06:04:50;;;;;;;4.20;2.30;;;16.10;99.90;;;;;;4898560;29;20424;-71
2024/04/07 06:07:18;;;;;;;4.07;2.13;;;16.10;99.90;;;;;;4899011;29;20758;-71
2024/04/07 06:09:47;;;;;;;4.23;2.00;;;16.00;99.90;;;;;;4899205;29;20428;-71
2024/04/07 06:12:14;;;;;;;4.30;2.20;;;16.00;99.90;;;;;;4898789;29;20452;-71
2024/04/07 06:14:42;;;;;;;3.27;1.77;;;16.00;99.90;;;;;;4898890;29;20510;-71
2024/04/07 06:17:10;;;;;;;5.60;2.27;;;16.00;99.90;;;;;;4899090;29;20480;-71
2024/04/07 06:19:36;;;;;;;4.73;2.00;;;16.00;99.90;;;;;;4898860;29;20500;-72
2024/04/07 06:22:04;;;;;;;4.33;2.03;;;15.90;99.90;;;;;;4914466;29;20848;-71
2024/04/07 06:24:30;;;;;;;3.63;2.43;;;15.90;99.90;;;;;;4883082;29;20428;-71
2024/04/07 06:26:57;;;;;;;3.97;2.60;;;15.90;99.90;;;;;;4882982;29;20453;-71
2024/04/07 06:29:23;;;;;;;4.80;2.20;;;15.90;99.90;;;;;;4898860;29;20452;-71
2024/04/07 06:31:52;;;;;;;5.50;2.20;;;15.90;99.90;;;;;;4898552;29;20424;-71
2024/04/07 06:34:18;;;;;;;4.10;2.40;;;15.90;99.90;;;;;;4898721;29;20431;-71
2024/04/07 06:36:47;;;;;;;12.37;8.00;;;15.80;99.90;;;;;;4913959;29;20448;-71
2024/04/07 06:39:13;;;;;;;8.23;5.40;;;15.80;99.90;;;;;;4898580;29;20828;-71
2024/04/07 06:41:40;;;;;;;9.20;3.30;;;15.80;99.90;;;;;;4898349;29;20513;-71
2024/04/07 06:44:07;;;;;;;4.40;2.60;;;15.80;99.90;;;;;;4900621;29;20436;-71
2024/04/07 06:46:34;;;;;;;5.23;2.80;;;15.80;99.90;;;;;;4908468;29;20427;-71
2024/04/07 06:49:02;;;;;;;4.80;2.40;;;15.70;99.90;;;;;;4900868;29;21010;-71
2024/04/07 06:51:31;;;;;;;4.60;2.67;;;15.70;99.90;;;;;;4899114;29;20432;-71
2024/04/07 06:53:58;;;;;;;4.23;2.10;;;15.70;99.90;;;;;;4898492;29;20424;-71
2024/04/07 06:56:25;;;;;;;6.60;5.43;;;15.70;99.90;;;;;;4913817;29;20462;-71
2024/04/07 06:58:51;;;;;;;5.60;3.60;;;15.70;99.90;;;;;;4898591;29;20453;-71
2024/04/07 07:01:19;;;;;;;5.80;3.10;;;15.70;99.90;;;;;;4898160;29;20424;-71
2024/04/07 07:03:45;;;;;;;4.10;2.77;;;15.70;99.90;;;;;;4882433;29;20536;-71
2024/04/07 07:06:15;;;;;;;5.20;2.60;;;15.70;99.90;;;;;;4898027;29;20423;-71
2024/04/07 07:08:42;;;;;;;5.77;3.40;;;15.70;99.90;;;;;;4897982;29;20789;-71
2024/04/07 07:11:11;;;;;;;9.00;6.47;;;15.70;99.90;;;;;;4898336;29;20420;-71
2024/04/07 07:13:42;;;;;;;4.97;2.87;;;15.80;99.90;;;;;;4897825;29;20835;-71
2024/04/07 07:16:10;;;;;;;4.50;2.77;;;15.80;99.90;;;;;;4897578;29;20516;-71
2024/04/07 07:18:36;;;;;;;5.40;2.73;;;15.80;99.90;;;;;;4898384;29;20853;-71
2024/04/07 07:21:06;;;;;;;4.73;3.23;;;15.80;99.90;;;;;;4897866;29;20453;-70
2024/04/07 07:23:35;;;;;;;5.53;2.70;;;15.80;99.90;;;;;;4897730;29;20466;-71
2024/04/07 07:26:03;;;;;;;4.47;2.73;;;15.90;99.90;;;;;;4897974;29;20552;-71
2024/04/07 07:28:30;;;;;;;5.90;3.70;;;15.90;99.90;;;;;;4898114;29;20784;-71
2024/04/07 07:30:57;;;;;;;4.50;2.80;;;15.90;99.90;;;;;;4898236;29;20419;-71
2024/04/07 07:33:23;;;;;;;5.43;2.77;;;16.00;99.90;;;;;;4885876;29;20456;-71
2024/04/07 07:35:52;;;;;;;4.67;2.93;;;16.10;99.90;;;;;;4899313;29;20507;-71
2024/04/07 07:38:18;;;;;;;6.40;3.00;;;16.10;99.90;;;;;;4899569;29;20481;-71
2024/04/07 07:40:46;;;;;;;4.40;3.13;;;16.10;99.90;;;;;;4883213;29;20441;-71
2024/04/07 07:43:13;;;;;;;4.87;2.87;;;16.20;99.90;;;;;;4897742;29;20473;-72
2024/04/07 07:45:40;;;;;;;5.93;2.90;;;16.20;99.90;;;;;;4898380;29;20408;-72
2024/04/07 07:48:06;;;;;;;6.80;3.30;;;16.30;99.90;;;;;;4913775;29;20995;-72
2024/04/07 07:50:34;;;;;;;6.37;3.07;;;16.30;99.90;;;;;;4898141;29;20868;-72
2024/04/07 07:53:00;;;;;;;5.47;3.13;;;16.40;99.90;;;;;;4897956;29;20477;-72
2024/04/07 07:55:27;;;;;;;3.33;2.10;;;16.40;99.90;;;;;;4897318;29;20528;-72
2024/04/07 07:57:55;;;;;;;4.80;2.50;;;16.50;99.90;;;;;;4897078;29;20459;-72
2024/04/07 08:00:23;;;;;;;4.13;1.90;;;16.50;99.90;;;;;;4882600;29;20858;-72
2024/04/07 08:02:52;;;;;;;3.63;2.20;;;16.60;99.90;;;;;;4897509;29;20455;-72
2024/04/07 08:05:19;;;;;;;1.87;1.43;;;16.60;99.90;;;;;;4897105;29;20467;-72
2024/04/07 08:07:46;;;;;;;4.23;1.80;;;16.70;99.90;;;;;;4897785;29;20460;-72
2024/04/07 08:10:13;;;;;;;5.57;2.20;;;16.70;99.90;;;;;;4897578;29;20420;-71
2024/04/07 08:12:40;;;;;;;3.80;1.97;;;16.80;99.90;;;;;;4897246;29;20469;-72
2024/04/07 08:15:11;;;;;;;4.20;1.53;;;16.90;99.90;;;;;;4897036;29;20428;-72
2024/04/07 08:17:38;;;;;;;4.40;1.87;;;17.00;99.90;;;;;;4912739;29;20464;-72
2024/04/07 08:20:07;;;;;;;2.77;1.40;;;17.10;99.90;;;;;;4897009;29;20452;-72
2024/04/07 08:22:34;;;;;;;2.90;1.90;;;17.20;99.90;;;;;;4897077;29;20474;-72
2024/04/07 08:25:05;;;;;;;4.20;1.70;;;17.30;99.90;;;;;;4896999;29;20428;-72
2024/04/07 08:27:33;;;;;;;3.70;1.47;;;17.40;99.90;;;;;;4899145;29;20430;-72
2024/04/07 08:30:01;;;;;;;2.27;1.20;;;17.50;99.90;;;;;;4900702;29;20862;-73
2024/04/07 08:32:28;;;;;;;3.10;1.40;;;17.60;99.90;;;;;;4900619;29;20484;-72
2024/04/07 08:34:56;;;;;;;4.10;2.00;;;17.70;99.90;;;;;;4916372;29;20524;-73
2024/04/07 08:37:22;;;;;;;3.30;1.10;;;17.80;99.90;;;;;;4884860;29;20444;-72
2024/04/07 08:39:49;;;;;;;3.30;1.30;;;17.90;99.90;;;;;;4900527;29;20480;-72
2024/04/07 08:42:16;;;;;;;2.67;1.30;;;18.00;99.90;;;;;;4900820;29;20860;-72
2024/04/07 08:44:45;;;;;;;1.60;0.80;;;18.10;99.90;;;;;;4900342;29;20436;-72
2024/04/07 08:47:12;;;;;;;2.83;1.50;;;18.10;99.90;;;;;;4900458;29;20445;-72
2024/04/07 08:49:43;;;;;;;1.77;0.90;;;18.20;99.90;;;;;;4901334;29;20424;-73
2024/04/07 08:52:10;;;;;;;2.77;1.30;;;18.30;99.90;;;;;;4901356;29;20846;-73
2024/04/07 08:54:38;;;;;;;2.63;1.10;;;18.40;99.90;;;;;;4884740;29;20474;-73
2024/04/07 08:57:08;;;;;;;1.40;0.80;;;18.40;99.90;;;;;;4900518;29;20536;-73
2024/04/07 08:59:35;;;;;;;2.50;0.80;;;18.40;99.90;;;;;;4884666;29;20445;-73
2024/04/07 09:02:02;;;;;;;3.30;1.30;;;18.40;99.90;;;;;;4900680;29;20569;-73
2024/04/07 09:04:32;;;;;;;2.93;1.10;;;18.50;99.90;;;;;;4900697;29;20579;-73
2024/04/07 09:07:03;;;;;;;23.47;2.03;;;18.50;99.90;;;;;;4916242;29;20514;-74
2024/04/07 09:09:31;;;;;;;2.93;1.10;;;18.60;99.90;;;;;;4900628;29;20521;-73
2024/04/07 09:11:58;;;;;;;2.27;1.00;;;18.60;99.90;;;;;;4899949;29;20503;-73
2024/04/07 09:14:26;;;;;;;2.70;1.23;;;18.60;99.90;;;;;;4900179;29;20810;-73
2024/04/07 09:17:01;;;;;;;2.73;1.00;;;18.70;99.90;;;;;;4899856;29;20459;-73
2024/04/07 09:19:31;;;;;;;2.40;1.10;;;18.80;99.90;;;;;;4899960;29;20418;-73
2024/04/07 09:21:57;;;;;;;3.10;1.07;;;18.80;99.90;;;;;;4915633;29;20469;-73
2024/04/07 09:24:27;;;;;;;2.47;1.00;;;18.90;99.90;;;;;;4899716;29;20449;-73
2024/04/07 09:26:55;;;;;;;2.47;1.37;;;18.90;99.90;;;;;;4899733;29;20453;-73
2024/04/07 09:29:23;;;;;;;2.30;1.20;;;19.00;99.90;;;;;;4899952;29;20452;-73
2024/04/07 09:31:50;;;;;;;3.13;1.03;;;19.00;99.90;;;;;;4899504;29;20453;-73
2024/04/07 09:34:17;;;;;;;1.50;1.00;;;19.00;99.90;;;;;;4899662;29;20873;-73
2024/04/07 09:36:43;;;;;;;2.37;1.10;;;19.00;99.90;;;;;;4883809;29;20452;-73
2024/04/07 09:39:13;;;;;;;3.07;1.30;;;19.00;99.90;;;;;;4898473;29;20480;-73
2024/04/07 09:41:42;;;;;;;2.67;1.07;;;19.10;99.90;;;;;;4899401;29;20445;-73
2024/04/07 09:44:10;;;;;;;4.83;1.40;;;19.10;99.90;;;;;;4884170;29;20543;-73
2024/04/07 09:46:38;;;;;;;1.83;0.80;;;19.10;99.90;;;;;;4883767;29;20468;-74
2024/04/07 09:49:08;;;;;;;4.10;1.23;;;19.20;99.90;;;;;;4899539;29;20450;-73
2024/04/07 09:51:41;;;;;;;3.00;0.77;;;19.20;99.90;;;;;;4883553;29;20449;-73
2024/04/07 09:54:15;;;;;;;3.23;1.20;;;19.30;99.90;;;;;;4914928;29;20456;-73
2024/04/07 09:56:44;;;;;;;2.17;1.07;;;19.30;99.90;;;;;;4899169;29;20433;-73
2024/04/07 09:59:11;;;;;;;3.37;0.90;;;19.40;99.90;;;;;;4899077;29;20473;-73
2024/04/07 10:01:39;;;;;;;2.53;0.97;;;19.40;99.90;;;;;;4898928;29;20512;-73
2024/04/07 10:04:07;;;;;;;2.53;1.20;;;19.50;99.90;;;;;;4899071;29;20453;-73
2024/04/07 10:06:35;;;;;;;2.10;0.77;;;19.50;99.90;;;;;;4898972;29;20449;-74
2024/04/07 10:09:03;;;;;;;1.77;0.90;;;19.60;99.90;;;;;;4899236;29;20450;-73
2024/04/07 10:11:29;;;;;;;5.43;1.13;;;19.60;99.90;;;;;;4898913;29;20818;-73
2024/04/07 10:14:00;;;;;;;3.90;1.30;;;19.60;99.90;;;;;;4899191;29;20559;-74
2024/04/07 10:16:27;;;;;;;3.00;1.23;;;19.60;99.90;;;;;;4899358;29;20434;-73
2024/04/07 10:18:54;;;;;;;2.60;0.80;;;19.70;99.90;;;;;;4915292;29;20996;-74
2024/04/07 10:21:21;;;;;;;2.30;0.70;;;19.70;99.90;;;;;;4899022;29;20857;-73
2024/04/07 10:23:49;;;;;;;2.50;1.20;;;19.70;99.90;;;;;;4901494;29;20822;-73
2024/04/07 10:26:15;;;;;;;2.90;1.37;;;19.80;99.90;;;;;;4904161;29;20452;-73
2024/04/07 10:28:48;;;;;;;1.70;0.90;;;19.90;99.90;;;;;;4916635;29;20456;-73
2024/04/07 10:31:22;;;;;;;3.30;0.97;;;19.90;99.90;;;;;;4884358;29;20551;-73
2024/04/07 10:33:50;;;;;;;2.40;0.97;;;19.90;99.90;;;;;;4899284;29;20815;-73
2024/04/07 10:36:18;;;;;;;2.83;1.20;;;20.00;99.90;;;;;;4899081;29;20866;-73
2024/04/07 10:38:47;;;;;;;2.57;1.00;;;20.10;99.90;;;;;;4883386;29;20469;-73
2024/04/07 10:41:17;;;;;;;3.40;1.10;;;20.10;99.90;;;;;;4914634;29;20448;-73
2024/04/07 10:43:46;;;;;;;2.80;1.13;;;20.10;99.90;;;;;;4914338;29;20492;-73
2024/04/07 10:46:12;;;;;;;2.87;0.90;;;20.10;99.90;;;;;;4898386;29;20482;-73
2024/04/07 10:48:41;;;;;;;2.70;1.17;;;20.10;99.90;;;;;;4882854;29;20453;-74
2024/04/07 10:51:09;;;;;;;5.53;1.00;;;20.10;99.90;;;;;;4898355;29;20509;-73
2024/04/07 10:53:37;;;;;;;2.33;1.00;;;20.10;99.90;;;;;;4898324;29;20473;-74
2024/04/07 10:56:03;;;;;;;3.77;1.17;;;20.10;99.90;;;;;;4913993;29;20452;-73
2024/04/07 10:58:31;;;;;;;2.07;1.03;;;20.10;99.90;;;;;;4898084;29;20849;-72
2024/04/07 11:00:57;;;;;;;3.30;1.57;;;20.20;99.90;;;;;;4882554;29;20459;-73
2024/04/07 11:03:26;;;;;;;4.80;1.23;;;20.20;99.90;;;;;;4898120;29;20651;-73
2024/04/07 11:05:55;;;;;;;3.10;1.03;;;20.20;99.90;;;;;;4898042;29;20540;-73
2024/04/07 11:08:23;;;;;;;3.67;0.80;;;20.20;99.90;;;;;;4898250;29;20456;-73
2024/04/07 11:10:53;;;;;;;4.13;1.77;;;20.20;99.90;;;;;;4882297;29;21026;-73
2024/04/07 11:13:23;;;;;;;2.90;1.20;;;20.20;99.90;;;;;;4898128;29;20531;-73
2024/04/07 11:15:50;;;;;;;2.53;1.10;;;20.30;99.90;;;;;;4882379;29;20461;-73
2024/04/07 11:18:20;;;;;;;3.17;1.03;;;20.30;99.90;;;;;;4898130;29;20548;-73
2024/04/07 11:20:47;;;;;;;1.57;0.93;;;20.40;99.90;;;;;;4898018;29;20468;-73
2024/04/07 11:23:16;;;;;;;3.67;1.00;;;20.40;99.90;;;;;;4897927;29;20488;-73
2024/04/07 11:25:45;;;;;;;2.80;1.30;;;20.40;99.90;;;;;;4897809;29;20456;-73
2024/04/07 11:28:13;;;;;;;2.67;1.00;;;20.40;99.90;;;;;;4913639;29;20457;-73
2024/04/07 11:30:44;;;;;;;3.57;1.20;;;20.50;99.90;;;;;;4888615;29;20429;-73
2024/04/07 11:33:12;;;;;;;3.00;0.90;;;20.50;99.90;;;;;;4897808;29;20483;-73
2024/04/07 11:35:39;;;;;;;3.30;1.40;;;20.50;99.90;;;;;;4913646;29;20537;-72
2024/04/07 11:38:07;;;;;;;1.93;1.10;;;20.50;99.90;;;;;;4882186;29;20582;-73
2024/04/07 11:40:35;;;;;;;5.13;1.00;;;20.50;99.90;;;;;;4897742;29;20843;-73
2024/04/07 11:43:03;;;;;;;2.03;1.00;;;20.60;99.90;;;;;;4897462;29;20480;-73
2024/04/07 11:45:29;;;;;;;3.17;1.13;;;20.60;99.90;;;;;;4881962;29;20464;-73
2024/04/07 11:47:59;;;;;;;3.67;1.03;;;20.60;99.90;;;;;;4897446;29;20462;-73
2024/04/07 11:50:25;;;;;;;2.70;0.90;;;20.60;99.90;;;;;;4897678;29;20456;-73
2024/04/07 11:52:53;;;;;;;1.73;1.00;;;20.60;99.90;;;;;;4897292;29;20473;-73
2024/04/07 11:55:19;;;;;;;2.67;0.87;;;20.60;99.90;;;;;;4897788;29;20445;-73
2024/04/07 11:57:48;;;;;;;3.47;1.07;;;20.70;99.90;;;;;;4897167;29;20480;-73
2024/04/07 12:00:14;;;;;;;3.40;0.90;;;20.70;99.90;;;;;;4912864;29;20453;-73
2024/04/07 12:02:41;;;;;;;2.13;0.90;;;20.70;99.90;;;;;;4897080;29;20477;-73
2024/04/07 12:05:08;;;;;;;3.23;1.20;;;20.80;99.90;;;;;;4897257;29;20448;-73
2024/04/07 12:07:36;;;;;;;3.93;1.40;;;20.80;99.90;;;;;;4897561;29;20865;-73
2024/04/07 12:10:03;;;;;;;1.80;0.90;;;20.80;99.90;;;;;;4897685;29;20841;-73
2024/04/07 12:12:30;;;;;;;2.47;1.10;;;20.90;99.90;;;;;;4897367;29;20480;-73
2024/04/07 12:14:59;;;;;;;2.40;1.00;;;20.90;99.90;;;;;;4897232;29;20453;-73
2024/04/07 12:17:27;;;;;;;2.80;1.17;;;21.00;99.90;;;;;;4897121;29;20457;-73
2024/04/07 12:19:53;;;;;;;1.60;0.80;;;21.00;99.90;;;;;;4897362;29;20943;-76
2024/04/07 12:22:22;;;;;;;2.47;1.10;;;21.00;99.90;;;;;;4913589;29;20469;-73
2024/04/07 12:24:49;;;;;;;2.57;1.13;;;21.00;99.90;;;;;;4897110;29;20480;-72
2024/04/07 12:27:18;;;;;;;3.00;2.00;;;21.00;99.90;;;;;;4897200;29;20457;-72
2024/04/07 12:29:44;;;;;;;2.87;1.07;;;21.00;99.90;;;;;;4913192;29;20464;-76
2024/04/07 12:32:13;;;;;;;1.70;0.80;;;21.10;99.90;;;;;;4897148;29;20567;-74
2024/04/07 12:34:39;;;;;;;3.03;1.00;;;21.00;99.90;;;;;;4881850;29;20828;-75
2024/04/07 12:37:06;;;;;;;2.37;1.00;;;21.10;99.90;;;;;;4913345;29;20476;-72
2024/04/07 12:39:33;;;;;;;3.67;1.20;;;21.10;99.90;;;;;;4881231;29;20476;-74
2024/04/07 12:42:00;;;;;;;2.00;0.93;;;21.20;99.90;;;;;;4896838;29;20473;-71
2024/04/07 12:44:26;;;;;;;3.17;1.10;;;21.30;99.90;;;;;;4897004;29;20520;-72
2024/04/07 12:46:53;;;;;;;2.47;1.47;;;21.30;99.90;;;;;;4913054;29;20958;-71
2024/04/07 12:49:22;;;;;;;2.93;1.10;;;21.40;99.90;;;;;;4896665;29;20458;-72